sensor_id;sensor_type;location;lat;lon;timestamp;temperature;humidity
57843;DHT22;43673;51.058;3.734;2023-06-10T00:01:29;23.90;85.80
57843;DHT22;43673;51.058;3.734;2023-06-10T00:03:55;23.80;86.10
57843;DHT22;43673;51.058;3.734;2023-06-10T00:06:21;23.80;86.20
57843;DHT22;43673;51.058;3.734;2023-06-10T00:08:50;23.80;86.30
57843;DHT22;43673;51.058;3.734;2023-06-10T00:11:15;23.70;86.20
57843;DHT22;43673;51.058;3.734;2023-06-10T00:13:41;23.60;86.60
57843;DHT22;43673;51.058;3.734;2023-06-10T00:16:07;23.70;86.50
57843;DHT22;43673;51.058;3.734;2023-06-10T00:18:32;23.70;86.40
57843;DHT22;43673;51.058;3.734;2023-06-10T00:20:58;23.70;86.40
57843;DHT22;43673;51.058;3.734;2023-06-10T00:23:29;23.70;86.50
57843;DHT22;43673;51.058;3.734;2023-06-10T00:26:00;23.50;86.90
57843;DHT22;43673;51.058;3.734;2023-06-10T00:28:25;23.50;86.90
57843;DHT22;43673;51.058;3.734;2023-06-10T00:30:51;23.50;87.00
57843;DHT22;43673;51.058;3.734;2023-06-10T00:33:17;23.40;87.20
57843;DHT22;43673;51.058;3.734;2023-06-10T00:35:42;23.40;87.20
57843;DHT22;43673;51.058;3.734;2023-06-10T00:38:08;23.40;87.30
57843;DHT22;43673;51.058;3.734;2023-06-10T00:40:39;23.50;87.10
57843;DHT22;43673;51.058;3.734;2023-06-10T00:43:05;23.30;87.40
57843;DHT22;43673;51.058;3.734;2023-06-10T00:45:31;23.40;87.30
57843;DHT22;43673;51.058;3.734;2023-06-10T00:47:57;23.30;87.30
57843;DHT22;43673;51.058;3.734;2023-06-10T00:50:23;23.30;87.40
57843;DHT22;43673;51.058;3.734;2023-06-10T00:52:49;23.20;87.50
57843;DHT22;43673;51.058;3.734;2023-06-10T00:55:17;23.20;88.00
57843;DHT22;43673;51.058;3.734;2023-06-10T00:57:45;23.10;88.00
57843;DHT22;43673;51.058;3.734;2023-06-10T01:00:11;23.20;87.90
57843;DHT22;43673;51.058;3.734;2023-06-10T01:02:37;23.20;87.90
57843;DHT22;43673;51.058;3.734;2023-06-10T01:05:03;23.20;87.60
57843;DHT22;43673;51.058;3.734;2023-06-10T01:10:28;23.20;87.60
57843;DHT22;43673;51.058;3.734;2023-06-10T01:12:59;23.10;88.00
57843;DHT22;43673;51.058;3.734;2023-06-10T01:15:31;23.00;88.20
57843;DHT22;43673;51.058;3.734;2023-06-10T01:18:02;22.90;88.50
57843;DHT22;43673;51.058;3.734;2023-06-10T01:20:29;22.90;88.70
57843;DHT22;43673;51.058;3.734;2023-06-10T01:22:58;22.90;89.50
57843;DHT22;43673;51.058;3.734;2023-06-10T01:25:25;22.90;88.70
57843;DHT22;43673;51.058;3.734;2023-06-10T01:33:11;22.70;89.50
57843;DHT22;43673;51.058;3.734;2023-06-10T01:35:38;22.70;89.70
57843;DHT22;43673;51.058;3.734;2023-06-10T01:38:05;22.70;89.90
57843;DHT22;43673;51.058;3.734;2023-06-10T01:40:31;22.60;90.10
57843;DHT22;43673;51.058;3.734;2023-06-10T01:42:57;22.60;90.20
57843;DHT22;43673;51.058;3.734;2023-06-10T01:45:23;22.60;90.40
57843;DHT22;43673;51.058;3.734;2023-06-10T01:47:49;22.50;90.40
57843;DHT22;43673;51.058;3.734;2023-06-10T01:50:14;22.50;90.50
57843;DHT22;43673;51.058;3.734;2023-06-10T01:52:42;22.60;90.60
57843;DHT22;43673;51.058;3.734;2023-06-10T01:55:07;22.50;90.70
57843;DHT22;43673;51.058;3.734;2023-06-10T01:57:33;22.50;90.80
57843;DHT22;43673;51.058;3.734;2023-06-10T01:59:59;22.40;91.00
57843;DHT22;43673;51.058;3.734;2023-06-10T02:02:24;22.40;91.10
57843;DHT22;43673;51.058;3.734;2023-06-10T02:04:50;22.40;91.30
57843;DHT22;43673;51.058;3.734;2023-06-10T02:07:16;22.30;91.30
57843;DHT22;43673;51.058;3.734;2023-06-10T02:09:41;22.20;91.60
57843;DHT22;43673;51.058;3.734;2023-06-10T02:12:07;22.10;91.90
57843;DHT22;43673;51.058;3.734;2023-06-10T02:14:33;22.10;91.90
57843;DHT22;43673;51.058;3.734;2023-06-10T02:16:59;22.20;92.00
57843;DHT22;43673;51.058;3.734;2023-06-10T02:19:24;22.20;92.10
57843;DHT22;43673;51.058;3.734;2023-06-10T02:21:52;22.20;92.10
57843;DHT22;43673;51.058;3.734;2023-06-10T02:24:18;22.20;92.20
57843;DHT22;43673;51.058;3.734;2023-06-10T02:26:43;22.10;92.50
57843;DHT22;43673;51.058;3.734;2023-06-10T02:29:09;22.10;92.60
57843;DHT22;43673;51.058;3.734;2023-06-10T02:31:35;22.10;92.60
57843;DHT22;43673;51.058;3.734;2023-06-10T02:34:01;22.10;92.70
57843;DHT22;43673;51.058;3.734;2023-06-10T02:36:28;22.10;92.80
57843;DHT22;43673;51.058;3.734;2023-06-10T02:38:54;22.10;93.00
57843;DHT22;43673;51.058;3.734;2023-06-10T02:41:19;22.00;93.10
57843;DHT22;43673;51.058;3.734;2023-06-10T02:43:47;22.00;93.40
57843;DHT22;43673;51.058;3.734;2023-06-10T02:46:13;21.90;93.70
57843;DHT22;43673;51.058;3.734;2023-06-10T02:48:46;21.80;93.90
57843;DHT22;43673;51.058;3.734;2023-06-10T02:51:11;21.90;93.90
57843;DHT22;43673;51.058;3.734;2023-06-10T02:53:37;21.90;94.00
57843;DHT22;43673;51.058;3.734;2023-06-10T02:56:03;21.80;94.20
57843;DHT22;43673;51.058;3.734;2023-06-10T02:58:29;21.80;94.40
57843;DHT22;43673;51.058;3.734;2023-06-10T03:00:54;21.70;94.60
57843;DHT22;43673;51.058;3.734;2023-06-10T03:03:20;21.60;95.00
57843;DHT22;43673;51.058;3.734;2023-06-10T03:05:48;21.60;95.20
57843;DHT22;43673;51.058;3.734;2023-06-10T03:08:14;21.50;95.40
57843;DHT22;43673;51.058;3.734;2023-06-10T03:10:39;21.60;95.50
57843;DHT22;43673;51.058;3.734;2023-06-10T03:13:05;21.60;95.50
57843;DHT22;43673;51.058;3.734;2023-06-10T03:15:31;21.70;95.60
57843;DHT22;43673;51.058;3.734;2023-06-10T03:17:59;21.60;95.80
57843;DHT22;43673;51.058;3.734;2023-06-10T03:20:25;21.50;96.00
57843;DHT22;43673;51.058;3.734;2023-06-10T03:22:53;21.50;96.30
57843;DHT22;43673;51.058;3.734;2023-06-10T03:25:18;21.50;96.40
57843;DHT22;43673;51.058;3.734;2023-06-10T03:27:46;21.50;96.50
57843;DHT22;43673;51.058;3.734;2023-06-10T03:30:13;21.40;97.00
57843;DHT22;43673;51.058;3.734;2023-06-10T03:32:39;21.30;97.30
57843;DHT22;43673;51.058;3.734;2023-06-10T03:35:06;21.30;97.50
57843;DHT22;43673;51.058;3.734;2023-06-10T03:37:35;21.30;97.70
57843;DHT22;43673;51.058;3.734;2023-06-10T03:40:01;21.30;98.00
57843;DHT22;43673;51.058;3.734;2023-06-10T03:42:27;21.30;98.00
57843;DHT22;43673;51.058;3.734;2023-06-10T03:44:52;21.30;98.20
57843;DHT22;43673;51.058;3.734;2023-06-10T03:47:18;21.40;98.20
57843;DHT22;43673;51.058;3.734;2023-06-10T03:49:44;21.30;98.40
57843;DHT22;43673;51.058;3.734;2023-06-10T03:52:09;21.20;98.80
57843;DHT22;43673;51.058;3.734;2023-06-10T03:54:35;21.20;99.10
57843;DHT22;43673;51.058;3.734;2023-06-10T03:57:01;21.20;99.40
57843;DHT22;43673;51.058;3.734;2023-06-10T03:59:26;21.20;99.30
57843;DHT22;43673;51.058;3.734;2023-06-10T04:01:52;21.20;99.60
57843;DHT22;43673;51.058;3.734;2023-06-10T04:04:17;21.10;99.90
57843;DHT22;43673;51.058;3.734;2023-06-10T04:06:43;21.10;99.90
57843;DHT22;43673;51.058;3.734;2023-06-10T04:09:10;21.10;99.90
57843;DHT22;43673;51.058;3.734;2023-06-10T04:11:36;21.10;99.90
57843;DHT22;43673;51.058;3.734;2023-06-10T04:14:02;21.10;99.90
57843;DHT22;43673;51.058;3.734;2023-06-10T04:16:28;21.10;99.90
57843;DHT22;43673;51.058;3.734;2023-06-10T04:18:54;21.10;99.90
57843;DHT22;43673;51.058;3.734;2023-06-10T04:21:20;21.20;99.90
57843;DHT22;43673;51.058;3.734;2023-06-10T04:23:45;21.10;99.90
57843;DHT22;43673;51.058;3.734;2023-06-10T04:26:11;21.30;99.90
57843;DHT22;43673;51.058;3.734;2023-06-10T04:28:38;21.30;99.90
57843;DHT22;43673;51.058;3.734;2023-06-10T04:31:03;21.30;99.90
57843;DHT22;43673;51.058;3.734;2023-06-10T04:33:30;21.30;99.90
57843;DHT22;43673;51.058;3.734;2023-06-10T04:35:55;21.40;99.90
57843;DHT22;43673;51.058;3.734;2023-06-10T04:38:21;21.50;99.90
57843;DHT22;43673;51.058;3.734;2023-06-10T04:40:47;21.50;99.90
57843;DHT22;43673;51.058;3.734;2023-06-10T04:43:13;21.90;99.90
57843;DHT22;43673;51.058;3.734;2023-06-10T04:45:38;22.40;99.90
57843;DHT22;43673;51.058;3.734;2023-06-10T04:48:05;22.80;99.20
57843;DHT22;43673;51.058;3.734;2023-06-10T04:50:30;23.10;98.50
57843;DHT22;43673;51.058;3.734;2023-06-10T04:52:58;23.40;97.60
57843;DHT22;43673;51.058;3.734;2023-06-10T04:55:24;23.50;97.20
57843;DHT22;43673;51.058;3.734;2023-06-10T04:57:50;23.10;97.80
57843;DHT22;43673;51.058;3.734;2023-06-10T05:00:16;23.20;98.10
57843;DHT22;43673;51.058;3.734;2023-06-10T05:02:42;23.80;97.00
57843;DHT22;43673;51.058;3.734;2023-06-10T05:05:08;24.40;96.10
57843;DHT22;43673;51.058;3.734;2023-06-10T05:07:34;24.70;95.10
57843;DHT22;43673;51.058;3.734;2023-06-10T05:10:00;24.80;94.80
57843;DHT22;43673;51.058;3.734;2023-06-10T05:12:26;25.20;94.80
57843;DHT22;43673;51.058;3.734;2023-06-10T05:17:28;25.50;93.40
57843;DHT22;43673;51.058;3.734;2023-06-10T05:19:53;25.80;93.10
57843;DHT22;43673;51.058;3.734;2023-06-10T05:22:19;25.90;92.80
57843;DHT22;43673;51.058;3.734;2023-06-10T05:24:45;25.90;92.70
57843;DHT22;43673;51.058;3.734;2023-06-10T05:27:11;26.50;92.30
57843;DHT22;43673;51.058;3.734;2023-06-10T05:29:37;26.80;91.70
57843;DHT22;43673;51.058;3.734;2023-06-10T05:32:03;27.00;91.30
57843;DHT22;43673;51.058;3.734;2023-06-10T05:34:30;27.10;91.00
57843;DHT22;43673;51.058;3.734;2023-06-10T05:36:56;27.40;90.60
57843;DHT22;43673;51.058;3.734;2023-06-10T05:39:22;27.50;90.30
57843;DHT22;43673;51.058;3.734;2023-06-10T05:41:48;27.40;90.20
57843;DHT22;43673;51.058;3.734;2023-06-10T05:44:13;27.40;90.10
57843;DHT22;43673;51.058;3.734;2023-06-10T05:46:44;27.70;89.80
57843;DHT22;43673;51.058;3.734;2023-06-10T05:49:10;27.80;88.80
57843;DHT22;43673;51.058;3.734;2023-06-10T05:51:36;27.90;88.20
57843;DHT22;43673;51.058;3.734;2023-06-10T05:54:02;27.80;88.60
57843;DHT22;43673;51.058;3.734;2023-06-10T05:56:28;27.50;89.10
57843;DHT22;43673;51.058;3.734;2023-06-10T05:58:54;27.30;89.40
57843;DHT22;43673;51.058;3.734;2023-06-10T06:01:20;27.60;89.40
57843;DHT22;43673;51.058;3.734;2023-06-10T06:03:49;27.70;88.90
57843;DHT22;43673;51.058;3.734;2023-06-10T06:06:14;27.60;88.50
57843;DHT22;43673;51.058;3.734;2023-06-10T06:08:40;27.60;88.80
57843;DHT22;43673;51.058;3.734;2023-06-10T06:11:06;27.80;88.50
57843;DHT22;43673;51.058;3.734;2023-06-10T06:13:32;28.10;88.40
57843;DHT22;43673;51.058;3.734;2023-06-10T06:15:58;28.30;87.10
57843;DHT22;43673;51.058;3.734;2023-06-10T06:18:24;28.10;87.20
57843;DHT22;43673;51.058;3.734;2023-06-10T06:20:50;28.40;86.80
57843;DHT22;43673;51.058;3.734;2023-06-10T06:23:15;28.20;86.20
57843;DHT22;43673;51.058;3.734;2023-06-10T06:25:41;27.90;87.60
57843;DHT22;43673;51.058;3.734;2023-06-10T06:28:07;27.90;87.90
57843;DHT22;43673;51.058;3.734;2023-06-10T06:30:35;28.50;87.10
57843;DHT22;43673;51.058;3.734;2023-06-10T06:33:01;29.00;85.40
57843;DHT22;43673;51.058;3.734;2023-06-10T06:35:26;29.50;84.60
57843;DHT22;43673;51.058;3.734;2023-06-10T06:37:52;30.40;82.40
57843;DHT22;43673;51.058;3.734;2023-06-10T06:40:18;30.30;81.20
57843;DHT22;43673;51.058;3.734;2023-06-10T06:42:44;31.00;80.00
57843;DHT22;43673;51.058;3.734;2023-06-10T06:45:10;31.60;78.00
57843;DHT22;43673;51.058;3.734;2023-06-10T06:47:36;31.90;77.00
57843;DHT22;43673;51.058;3.734;2023-06-10T06:50:02;31.50;76.80
57843;DHT22;43673;51.058;3.734;2023-06-10T06:52:27;31.90;76.40
57843;DHT22;43673;51.058;3.734;2023-06-10T06:54:53;32.50;75.00
57843;DHT22;43673;51.058;3.734;2023-06-10T06:57:19;32.30;74.40
57843;DHT22;43673;51.058;3.734;2023-06-10T06:59:45;31.40;75.30
57843;DHT22;43673;51.058;3.734;2023-06-10T07:02:11;31.30;75.60
57843;DHT22;43673;51.058;3.734;2023-06-10T07:04:36;32.00;75.00
57843;DHT22;43673;51.058;3.734;2023-06-10T07:07:02;32.10;73.00
57843;DHT22;43673;51.058;3.734;2023-06-10T07:09:29;31.40;74.50
57843;DHT22;43673;51.058;3.734;2023-06-10T07:11:55;31.60;75.10
57843;DHT22;43673;51.058;3.734;2023-06-10T07:14:21;31.80;74.30
57843;DHT22;43673;51.058;3.734;2023-06-10T07:16:46;32.50;73.70
57843;DHT22;43673;51.058;3.734;2023-06-10T07:19:13;32.90;72.00
57843;DHT22;43673;51.058;3.734;2023-06-10T07:21:39;33.10;71.60
57843;DHT22;43673;51.058;3.734;2023-06-10T07:24:05;33.50;70.80
57843;DHT22;43673;51.058;3.734;2023-06-10T07:26:31;33.90;69.20
57843;DHT22;43673;51.058;3.734;2023-06-10T07:28:57;34.40;68.60
57843;DHT22;43673;51.058;3.734;2023-06-10T07:31:23;34.60;67.90
57843;DHT22;43673;51.058;3.734;2023-06-10T07:33:50;34.90;67.70
57843;DHT22;43673;51.058;3.734;2023-06-10T07:36:15;35.60;66.70
57843;DHT22;43673;51.058;3.734;2023-06-10T07:38:41;35.20;66.10
57843;DHT22;43673;51.058;3.734;2023-06-10T07:41:08;36.10;65.20
57843;DHT22;43673;51.058;3.734;2023-06-10T07:43:34;36.50;63.80
57843;DHT22;43673;51.058;3.734;2023-06-10T07:46:00;36.60;62.60
57843;DHT22;43673;51.058;3.734;2023-06-10T07:48:26;35.70;63.50
57843;DHT22;43673;51.058;3.734;2023-06-10T07:50:52;35.70;63.10
57843;DHT22;43673;51.058;3.734;2023-06-10T07:53:18;34.90;63.80
57843;DHT22;43673;51.058;3.734;2023-06-10T07:55:43;34.30;64.30
57843;DHT22;43673;51.058;3.734;2023-06-10T07:58:09;33.70;66.20
57843;DHT22;43673;51.058;3.734;2023-06-10T08:00:35;33.30;66.90
57843;DHT22;43673;51.058;3.734;2023-06-10T08:03:01;33.70;67.50
57843;DHT22;43673;51.058;3.734;2023-06-10T08:05:26;34.00;66.00
57843;DHT22;43673;51.058;3.734;2023-06-10T08:07:52;34.00;65.50
57843;DHT22;43673;51.058;3.734;2023-06-10T08:10:21;34.40;65.30
57843;DHT22;43673;51.058;3.734;2023-06-10T08:12:47;35.60;63.00
57843;DHT22;43673;51.058;3.734;2023-06-10T08:15:15;35.80;61.40
57843;DHT22;43673;51.058;3.734;2023-06-10T08:17:41;36.00;60.20
57843;DHT22;43673;51.058;3.734;2023-06-10T08:20:07;35.20;62.10
57843;DHT22;43673;51.058;3.734;2023-06-10T08:22:33;34.30;62.00
57843;DHT22;43673;51.058;3.734;2023-06-10T08:24:59;33.80;63.10
57843;DHT22;43673;51.058;3.734;2023-06-10T08:27:24;33.40;64.00
57843;DHT22;43673;51.058;3.734;2023-06-10T08:29:50;33.30;62.30
57843;DHT22;43673;51.058;3.734;2023-06-10T08:32:16;33.20;63.40
57843;DHT22;43673;51.058;3.734;2023-06-10T08:34:41;33.20;64.20
57843;DHT22;43673;51.058;3.734;2023-06-10T08:37:07;34.00;62.60
57843;DHT22;43673;51.058;3.734;2023-06-10T08:39:33;33.90;61.70
57843;DHT22;43673;51.058;3.734;2023-06-10T08:42:09;34.10;61.20
57843;DHT22;43673;51.058;3.734;2023-06-10T08:44:36;34.60;61.70
57843;DHT22;43673;51.058;3.734;2023-06-10T08:47:13;35.80;60.30
57843;DHT22;43673;51.058;3.734;2023-06-10T08:49:45;35.30;58.80
57843;DHT22;43673;51.058;3.734;2023-06-10T08:52:16;34.70;59.20
57843;DHT22;43673;51.058;3.734;2023-06-10T08:55:00;35.10;59.10
57843;DHT22;43673;51.058;3.734;2023-06-10T08:57:29;34.70;59.00
57843;DHT22;43673;51.058;3.734;2023-06-10T08:59:57;34.00;59.70
57843;DHT22;43673;51.058;3.734;2023-06-10T09:02:27;34.40;59.90
57843;DHT22;43673;51.058;3.734;2023-06-10T09:04:56;34.00;59.50
57843;DHT22;43673;51.058;3.734;2023-06-10T09:07:23;34.30;61.00
57843;DHT22;43673;51.058;3.734;2023-06-10T09:09:49;34.60;59.80
57843;DHT22;43673;51.058;3.734;2023-06-10T09:12:15;34.40;59.20
57843;DHT22;43673;51.058;3.734;2023-06-10T09:14:44;34.50;59.50
57843;DHT22;43673;51.058;3.734;2023-06-10T09:17:10;34.00;59.30
57843;DHT22;43673;51.058;3.734;2023-06-10T09:19:36;33.40;60.80
57843;DHT22;43673;51.058;3.734;2023-06-10T09:22:06;33.60;60.60
57843;DHT22;43673;51.058;3.734;2023-06-10T09:24:32;34.10;61.10
57843;DHT22;43673;51.058;3.734;2023-06-10T09:27:08;34.70;59.90
57843;DHT22;43673;51.058;3.734;2023-06-10T09:29:54;34.50;59.40
57843;DHT22;43673;51.058;3.734;2023-06-10T09:32:21;34.10;59.20
57843;DHT22;43673;51.058;3.734;2023-06-10T09:34:47;33.90;60.10
57843;DHT22;43673;51.058;3.734;2023-06-10T09:37:23;33.60;59.70
57843;DHT22;43673;51.058;3.734;2023-06-10T09:40:06;33.80;60.30
57843;DHT22;43673;51.058;3.734;2023-06-10T09:42:36;33.80;59.30
57843;DHT22;43673;51.058;3.734;2023-06-10T09:45:06;34.00;59.00
57843;DHT22;43673;51.058;3.734;2023-06-10T09:47:32;34.20;59.60
57843;DHT22;43673;51.058;3.734;2023-06-10T09:49:58;34.40;59.20
57843;DHT22;43673;51.058;3.734;2023-06-10T09:52:25;34.60;58.10
57843;DHT22;43673;51.058;3.734;2023-06-10T09:54:52;34.60;57.70
57843;DHT22;43673;51.058;3.734;2023-06-10T09:57:19;34.50;57.70
57843;DHT22;43673;51.058;3.734;2023-06-10T09:59:45;34.40;58.60
57843;DHT22;43673;51.058;3.734;2023-06-10T10:02:18;34.70;59.00
57843;DHT22;43673;51.058;3.734;2023-06-10T10:04:44;35.00;57.20
57843;DHT22;43673;51.058;3.734;2023-06-10T10:07:13;34.20;58.10
57843;DHT22;43673;51.058;3.734;2023-06-10T10:09:40;33.80;59.10
57843;DHT22;43673;51.058;3.734;2023-06-10T10:12:10;34.20;58.60
57843;DHT22;43673;51.058;3.734;2023-06-10T10:14:37;33.60;59.30
57843;DHT22;43673;51.058;3.734;2023-06-10T10:17:07;33.30;59.60
57843;DHT22;43673;51.058;3.734;2023-06-10T10:19:40;33.90;58.10
57843;DHT22;43673;51.058;3.734;2023-06-10T10:22:15;34.00;57.40
57843;DHT22;43673;51.058;3.734;2023-06-10T10:24:49;33.50;57.60
57843;DHT22;43673;51.058;3.734;2023-06-10T10:27:26;33.80;57.90
57843;DHT22;43673;51.058;3.734;2023-06-10T10:29:52;33.70;58.10
57843;DHT22;43673;51.058;3.734;2023-06-10T10:32:29;34.20;57.30
57843;DHT22;43673;51.058;3.734;2023-06-10T10:35:16;34.30;57.40
57843;DHT22;43673;51.058;3.734;2023-06-10T10:37:43;35.20;56.30
57843;DHT22;43673;51.058;3.734;2023-06-10T10:40:10;34.20;55.10
57843;DHT22;43673;51.058;3.734;2023-06-10T10:42:38;33.80;57.10
57843;DHT22;43673;51.058;3.734;2023-06-10T10:45:04;34.20;56.40
57843;DHT22;43673;51.058;3.734;2023-06-10T10:47:31;34.20;56.00
57843;DHT22;43673;51.058;3.734;2023-06-10T10:49:58;34.60;56.10
57843;DHT22;43673;51.058;3.734;2023-06-10T10:52:25;34.80;55.50
57843;DHT22;43673;51.058;3.734;2023-06-10T10:54:53;34.90;54.70
57843;DHT22;43673;51.058;3.734;2023-06-10T10:57:21;35.10;54.20
57843;DHT22;43673;51.058;3.734;2023-06-10T10:59:58;35.30;53.40
57843;DHT22;43673;51.058;3.734;2023-06-10T11:05:08;35.00;52.70
57843;DHT22;43673;51.058;3.734;2023-06-10T11:07:34;34.90;52.90
57843;DHT22;43673;51.058;3.734;2023-06-10T11:15:29;35.10;52.70
57843;DHT22;43673;51.058;3.734;2023-06-10T11:18:09;35.40;52.10
57843;DHT22;43673;51.058;3.734;2023-06-10T11:31:24;33.60;53.30
57843;DHT22;43673;51.058;3.734;2023-06-10T11:33:55;33.00;53.80
57843;DHT22;43673;51.058;3.734;2023-06-10T11:36:25;32.90;53.90
57843;DHT22;43673;51.058;3.734;2023-06-10T11:38:52;32.50;53.00
57843;DHT22;43673;51.058;3.734;2023-06-10T11:41:18;32.10;53.40
57843;DHT22;43673;51.058;3.734;2023-06-10T11:43:45;31.90;53.30
57843;DHT22;43673;51.058;3.734;2023-06-10T11:46:11;31.60;53.70
57843;DHT22;43673;51.058;3.734;2023-06-10T11:48:37;31.30;53.50
57843;DHT22;43673;51.058;3.734;2023-06-10T11:51:07;31.30;53.90
57843;DHT22;43673;51.058;3.734;2023-06-10T11:53:33;31.20;54.10
57843;DHT22;43673;51.058;3.734;2023-06-10T11:55:59;31.30;54.40
57843;DHT22;43673;51.058;3.734;2023-06-10T11:58:24;31.40;54.70
57843;DHT22;43673;51.058;3.734;2023-06-10T12:00:55;31.20;53.10
57843;DHT22;43673;51.058;3.734;2023-06-10T12:03:26;31.30;51.70
57843;DHT22;43673;51.058;3.734;2023-06-10T12:06:00;31.40;52.80
57843;DHT22;43673;51.058;3.734;2023-06-10T12:08:27;31.20;53.10
57843;DHT22;43673;51.058;3.734;2023-06-10T12:10:53;31.30;54.00
57843;DHT22;43673;51.058;3.734;2023-06-10T12:13:20;31.40;53.30
57843;DHT22;43673;51.058;3.734;2023-06-10T12:15:46;31.40;54.20
57843;DHT22;43673;51.058;3.734;2023-06-10T12:18:43;31.50;53.80
57843;DHT22;43673;51.058;3.734;2023-06-10T12:21:16;31.60;52.60
57843;DHT22;43673;51.058;3.734;2023-06-10T12:24:03;31.70;51.90
57843;DHT22;43673;51.058;3.734;2023-06-10T12:26:43;31.70;50.70
57843;DHT22;43673;51.058;3.734;2023-06-10T12:29:24;31.80;51.20
57843;DHT22;43673;51.058;3.734;2023-06-10T12:32:01;31.70;51.80
57843;DHT22;43673;51.058;3.734;2023-06-10T12:36:54;31.60;52.20
57843;DHT22;43673;51.058;3.734;2023-06-10T12:39:20;31.70;52.00
57843;DHT22;43673;51.058;3.734;2023-06-10T12:41:51;31.70;51.80
57843;DHT22;43673;51.058;3.734;2023-06-10T12:44:16;31.80;51.90
57843;DHT22;43673;51.058;3.734;2023-06-10T12:46:42;31.70;52.00
57843;DHT22;43673;51.058;3.734;2023-06-10T12:49:10;31.90;52.70
57843;DHT22;43673;51.058;3.734;2023-06-10T12:51:43;31.90;52.30
57843;DHT22;43673;51.058;3.734;2023-06-10T12:54:09;31.90;52.40
57843;DHT22;43673;51.058;3.734;2023-06-10T12:56:35;32.10;52.10
57843;DHT22;43673;51.058;3.734;2023-06-10T12:59:01;32.10;52.10
57843;DHT22;43673;51.058;3.734;2023-06-10T13:01:28;32.00;52.00
57843;DHT22;43673;51.058;3.734;2023-06-10T13:03:54;31.80;51.90
57843;DHT22;43673;51.058;3.734;2023-06-10T13:06:19;31.60;52.20
57843;DHT22;43673;51.058;3.734;2023-06-10T13:08:45;31.70;52.20
57843;DHT22;43673;51.058;3.734;2023-06-10T13:11:12;31.80;51.90
57843;DHT22;43673;51.058;3.734;2023-06-10T13:13:38;31.80;51.80
57843;DHT22;43673;51.058;3.734;2023-06-10T13:16:04;31.80;51.80
57843;DHT22;43673;51.058;3.734;2023-06-10T13:18:29;31.90;51.80
57843;DHT22;43673;51.058;3.734;2023-06-10T13:20:55;31.90;52.30
57843;DHT22;43673;51.058;3.734;2023-06-10T13:23:21;32.10;51.90
57843;DHT22;43673;51.058;3.734;2023-06-10T13:25:49;32.00;52.20
57843;DHT22;43673;51.058;3.734;2023-06-10T13:28:15;32.20;51.50
57843;DHT22;43673;51.058;3.734;2023-06-10T13:30:41;32.20;51.10
57843;DHT22;43673;51.058;3.734;2023-06-10T13:33:07;32.30;51.10
57843;DHT22;43673;51.058;3.734;2023-06-10T13:35:32;32.30;51.10
57843;DHT22;43673;51.058;3.734;2023-06-10T13:37:58;32.50;51.00
57843;DHT22;43673;51.058;3.734;2023-06-10T13:40:23;32.70;50.90
57843;DHT22;43673;51.058;3.734;2023-06-10T13:42:49;32.20;51.30
57843;DHT22;43673;51.058;3.734;2023-06-10T13:45:16;31.90;51.50
57843;DHT22;43673;51.058;3.734;2023-06-10T13:47:42;31.80;51.30
57843;DHT22;43673;51.058;3.734;2023-06-10T13:50:08;32.10;51.20
57843;DHT22;43673;51.058;3.734;2023-06-10T13:52:34;32.10;51.90
57843;DHT22;43673;51.058;3.734;2023-06-10T13:54:59;32.30;51.30
57843;DHT22;43673;51.058;3.734;2023-06-10T13:57:25;32.30;51.10
57843;DHT22;43673;51.058;3.734;2023-06-10T13:59:51;32.40;51.20
57843;DHT22;43673;51.058;3.734;2023-06-10T14:02:17;32.30;51.40
57843;DHT22;43673;51.058;3.734;2023-06-10T14:04:43;32.30;51.40
57843;DHT22;43673;51.058;3.734;2023-06-10T14:07:08;32.40;51.80
57843;DHT22;43673;51.058;3.734;2023-06-10T14:09:34;32.50;51.00
57843;DHT22;43673;51.058;3.734;2023-06-10T14:12:00;32.50;50.60
57843;DHT22;43673;51.058;3.734;2023-06-10T14:14:25;32.50;50.70
57843;DHT22;43673;51.058;3.734;2023-06-10T14:16:51;32.50;51.40
57843;DHT22;43673;51.058;3.734;2023-06-10T14:19:17;32.60;51.30
57843;DHT22;43673;51.058;3.734;2023-06-10T14:21:42;32.60;51.10
57843;DHT22;43673;51.058;3.734;2023-06-10T14:24:08;32.60;51.20
57843;DHT22;43673;51.058;3.734;2023-06-10T14:26:34;32.40;51.20
57843;DHT22;43673;51.058;3.734;2023-06-10T14:28:59;32.20;51.60
57843;DHT22;43673;51.058;3.734;2023-06-10T14:31:25;32.20;51.50
57843;DHT22;43673;51.058;3.734;2023-06-10T14:33:51;32.20;51.60
57843;DHT22;43673;51.058;3.734;2023-06-10T14:36:16;32.20;51.70
57843;DHT22;43673;51.058;3.734;2023-06-10T14:38:43;32.20;51.70
57843;DHT22;43673;51.058;3.734;2023-06-10T14:41:08;32.20;51.30
57843;DHT22;43673;51.058;3.734;2023-06-10T14:43:34;32.20;51.40
57843;DHT22;43673;51.058;3.734;2023-06-10T14:46:00;32.30;51.40
57843;DHT22;43673;51.058;3.734;2023-06-10T14:48:26;32.40;50.80
57843;DHT22;43673;51.058;3.734;2023-06-10T14:50:55;32.30;50.80
57843;DHT22;43673;51.058;3.734;2023-06-10T14:53:20;32.20;51.10
57843;DHT22;43673;51.058;3.734;2023-06-10T14:55:46;32.30;51.20
57843;DHT22;43673;51.058;3.734;2023-06-10T14:58:12;32.30;51.30
57843;DHT22;43673;51.058;3.734;2023-06-10T15:00:39;32.30;51.70
57843;DHT22;43673;51.058;3.734;2023-06-10T15:03:04;32.50;50.90
57843;DHT22;43673;51.058;3.734;2023-06-10T15:05:30;32.60;50.50
57843;DHT22;43673;51.058;3.734;2023-06-10T15:07:56;32.60;50.70
57843;DHT22;43673;51.058;3.734;2023-06-10T15:10:22;32.10;50.70
57843;DHT22;43673;51.058;3.734;2023-06-10T15:12:48;32.20;50.90
57843;DHT22;43673;51.058;3.734;2023-06-10T15:15:23;32.40;50.50
57843;DHT22;43673;51.058;3.734;2023-06-10T15:17:53;32.30;50.90
57843;DHT22;43673;51.058;3.734;2023-06-10T15:20:19;32.30;51.00
57843;DHT22;43673;51.058;3.734;2023-06-10T15:22:45;32.40;50.30
57843;DHT22;43673;51.058;3.734;2023-06-10T15:25:11;32.50;50.50
57843;DHT22;43673;51.058;3.734;2023-06-10T15:27:37;32.30;51.10
57843;DHT22;43673;51.058;3.734;2023-06-10T15:30:04;32.40;50.20
57843;DHT22;43673;51.058;3.734;2023-06-10T15:32:33;32.40;50.00
57843;DHT22;43673;51.058;3.734;2023-06-10T15:34:58;32.30;50.60
57843;DHT22;43673;51.058;3.734;2023-06-10T15:37:24;32.40;51.20
57843;DHT22;43673;51.058;3.734;2023-06-10T15:39:53;32.30;51.00
57843;DHT22;43673;51.058;3.734;2023-06-10T15:42:18;32.30;50.80
57843;DHT22;43673;51.058;3.734;2023-06-10T15:44:44;32.30;51.30
57843;DHT22;43673;51.058;3.734;2023-06-10T15:47:10;32.20;51.20
57843;DHT22;43673;51.058;3.734;2023-06-10T15:49:36;32.10;51.40
57843;DHT22;43673;51.058;3.734;2023-06-10T15:52:02;32.10;50.70
57843;DHT22;43673;51.058;3.734;2023-06-10T15:54:28;32.30;50.30
57843;DHT22;43673;51.058;3.734;2023-06-10T15:56:53;32.50;50.10
57843;DHT22;43673;51.058;3.734;2023-06-10T15:59:19;32.40;50.60
57843;DHT22;43673;51.058;3.734;2023-06-10T16:01:45;32.40;50.80